sensor_id;sensor_type;location;lat;lon;timestamp;pressure;altitude;pressure_sealevel;temperature;humidity
49827;BME280;35715;51.570;6.036;2022-12-10T00:01:42;100738.84;;;1.01;84.05
49827;BME280;35715;51.570;6.036;2022-12-10T00:04:07;100739.00;;;1.03;84.22
49827;BME280;35715;51.570;6.036;2022-12-10T00:06:35;100745.56;;;1.01;84.09
49827;BME280;35715;51.570;6.036;2022-12-10T00:09:03;100743.44;;;0.97;84.13
49827;BME280;35715;51.570;6.036;2022-12-10T00:11:28;100740.59;;;0.94;84.14
49827;BME280;35715;51.570;6.036;2022-12-10T00:13:54;100745.66;;;0.94;84.11
49827;BME280;35715;51.570;6.036;2022-12-10T00:16:21;100749.53;;;0.90;84.21
49827;BME280;35715;51.570;6.036;2022-12-10T00:18:47;100732.50;;;0.89;84.15
49827;BME280;35715;51.570;6.036;2022-12-10T00:21:14;100743.75;;;0.91;84.29
49827;BME280;35715;51.570;6.036;2022-12-10T00:23:41;100734.31;;;0.90;84.09
49827;BME280;35715;51.570;6.036;2022-12-10T00:29:03;100751.03;;;0.88;84.24
49827;BME280;35715;51.570;6.036;2022-12-10T00:31:30;100745.97;;;0.88;84.54
49827;BME280;35715;51.570;6.036;2022-12-10T00:33:56;100746.44;;;0.93;84.67
49827;BME280;35715;51.570;6.036;2022-12-10T00:36:22;100737.91;;;0.92;84.52
49827;BME280;35715;51.570;6.036;2022-12-10T00:38:48;100748.81;;;0.91;84.05
49827;BME280;35715;51.570;6.036;2022-12-10T00:41:14;100748.03;;;0.83;83.80
49827;BME280;35715;51.570;6.036;2022-12-10T00:43:40;100744.34;;;0.73;83.81
49827;BME280;35715;51.570;6.036;2022-12-10T00:46:05;100749.25;;;0.71;83.96
49827;BME280;35715;51.570;6.036;2022-12-10T00:48:30;100752.38;;;0.68;84.30
49827;BME280;35715;51.570;6.036;2022-12-10T00:53:24;100741.75;;;0.64;84.21
49827;BME280;35715;51.570;6.036;2022-12-10T00:55:51;100745.91;;;0.63;84.35
49827;BME280;35715;51.570;6.036;2022-12-10T00:58:16;100744.13;;;0.62;84.66
49827;BME280;35715;51.570;6.036;2022-12-10T01:00:41;100741.59;;;0.62;84.61
49827;BME280;35715;51.570;6.036;2022-12-10T01:03:07;100748.13;;;0.60;84.78
49827;BME280;35715;51.570;6.036;2022-12-10T01:05:32;100752.72;;;0.56;84.70
49827;BME280;35715;51.570;6.036;2022-12-10T01:07:57;100746.75;;;0.55;84.85
49827;BME280;35715;51.570;6.036;2022-12-10T01:10:22;100748.41;;;0.55;84.89
49827;BME280;35715;51.570;6.036;2022-12-10T01:12:48;100753.88;;;0.50;84.72
49827;BME280;35715;51.570;6.036;2022-12-10T01:17:41;100756.25;;;0.49;84.88
49827;BME280;35715;51.570;6.036;2022-12-10T01:20:07;100761.66;;;0.52;84.76
49827;BME280;35715;51.570;6.036;2022-12-10T01:22:32;100761.50;;;0.50;84.72
49827;BME280;35715;51.570;6.036;2022-12-10T01:24:58;100763.88;;;0.49;85.00
49827;BME280;35715;51.570;6.036;2022-12-10T01:27:23;100761.91;;;0.46;84.74
49827;BME280;35715;51.570;6.036;2022-12-10T01:29:49;100758.47;;;0.46;84.90
49827;BME280;35715;51.570;6.036;2022-12-10T01:32:14;100768.31;;;0.43;84.83
49827;BME280;35715;51.570;6.036;2022-12-10T01:34:39;100768.63;;;0.46;85.11
49827;BME280;35715;51.570;6.036;2022-12-10T01:37:05;100765.94;;;0.44;84.85
49827;BME280;35715;51.570;6.036;2022-12-10T01:39:30;100769.19;;;0.43;84.75
49827;BME280;35715;51.570;6.036;2022-12-10T01:41:56;100775.91;;;0.43;84.80
49827;BME280;35715;51.570;6.036;2022-12-10T01:49:21;100787.97;;;0.37;84.70
49827;BME280;35715;51.570;6.036;2022-12-10T01:51:48;100784.34;;;0.34;84.92
49827;BME280;35715;51.570;6.036;2022-12-10T01:54:17;100791.56;;;0.39;85.42
49827;BME280;35715;51.570;6.036;2022-12-10T01:56:43;100777.97;;;0.38;85.29
49827;BME280;35715;51.570;6.036;2022-12-10T01:59:17;100776.16;;;0.37;84.89
49827;BME280;35715;51.570;6.036;2022-12-10T02:01:46;100781.97;;;0.36;84.83
49827;BME280;35715;51.570;6.036;2022-12-10T02:09:46;100779.84;;;0.32;85.37
49827;BME280;35715;51.570;6.036;2022-12-10T02:12:15;100773.88;;;0.31;84.81
49827;BME280;35715;51.570;6.036;2022-12-10T02:17:27;100783.53;;;0.27;84.52
49827;BME280;35715;51.570;6.036;2022-12-10T02:20:29;100788.25;;;0.24;84.24
49827;BME280;35715;51.570;6.036;2022-12-10T02:23:08;100784.84;;;0.23;84.74
49827;BME280;35715;51.570;6.036;2022-12-10T02:28:28;100780.88;;;0.18;84.82
49827;BME280;35715;51.570;6.036;2022-12-10T02:30:56;100780.72;;;0.16;84.57
49827;BME280;35715;51.570;6.036;2022-12-10T02:33:23;100780.41;;;0.13;84.64
49827;BME280;35715;51.570;6.036;2022-12-10T02:35:58;100779.34;;;0.11;84.68
49827;BME280;35715;51.570;6.036;2022-12-10T02:38:32;100783.53;;;0.11;84.85
49827;BME280;35715;51.570;6.036;2022-12-10T02:40:59;100785.47;;;0.13;85.04
49827;BME280;35715;51.570;6.036;2022-12-10T02:43:26;100782.53;;;0.17;85.02
49827;BME280;35715;51.570;6.036;2022-12-10T02:45:52;100780.56;;;0.15;84.85
49827;BME280;35715;51.570;6.036;2022-12-10T02:48:19;100778.94;;;0.15;84.87
49827;BME280;35715;51.570;6.036;2022-12-10T02:50:44;100776.09;;;0.12;84.53
49827;BME280;35715;51.570;6.036;2022-12-10T02:53:10;100771.41;;;0.08;84.25
49827;BME280;35715;51.570;6.036;2022-12-10T02:58:27;100769.25;;;0.04;84.99
49827;BME280;35715;51.570;6.036;2022-12-10T03:00:58;100780.91;;;0.02;84.66
49827;BME280;35715;51.570;6.036;2022-12-10T03:03:27;100778.69;;;0.05;84.91
49827;BME280;35715;51.570;6.036;2022-12-10T03:05:56;100777.63;;;0.03;84.87
49827;BME280;35715;51.570;6.036;2022-12-10T03:13:36;100784.41;;;0.11;85.90
49827;BME280;35715;51.570;6.036;2022-12-10T03:16:04;100784.91;;;0.16;86.37
49827;BME280;35715;51.570;6.036;2022-12-10T03:18:30;100795.00;;;0.23;86.16
49827;BME280;35715;51.570;6.036;2022-12-10T03:20:57;100789.84;;;0.30;86.29
49827;BME280;35715;51.570;6.036;2022-12-10T03:23:23;100788.84;;;0.37;86.15
49827;BME280;35715;51.570;6.036;2022-12-10T03:25:48;100787.03;;;0.36;85.55
49827;BME280;35715;51.570;6.036;2022-12-10T03:28:15;100788.63;;;0.43;85.70
49827;BME280;35715;51.570;6.036;2022-12-10T03:30:43;100789.91;;;0.39;85.25
49827;BME280;35715;51.570;6.036;2022-12-10T03:33:08;100795.81;;;0.31;84.77
49827;BME280;35715;51.570;6.036;2022-12-10T03:35:34;100784.00;;;0.31;85.21
49827;BME280;35715;51.570;6.036;2022-12-10T03:37:59;100785.97;;;0.34;85.50
49827;BME280;35715;51.570;6.036;2022-12-10T03:40:25;100787.63;;;0.33;85.01
49827;BME280;35715;51.570;6.036;2022-12-10T03:42:50;100783.84;;;0.30;84.60
49827;BME280;35715;51.570;6.036;2022-12-10T03:45:16;100786.22;;;0.28;84.96
49827;BME280;35715;51.570;6.036;2022-12-10T03:47:41;100795.47;;;0.28;85.00
49827;BME280;35715;51.570;6.036;2022-12-10T03:50:07;100789.31;;;0.26;84.82
49827;BME280;35715;51.570;6.036;2022-12-10T03:52:32;100789.16;;;0.24;85.25
49827;BME280;35715;51.570;6.036;2022-12-10T03:54:59;100795.31;;;0.26;85.11
49827;BME280;35715;51.570;6.036;2022-12-10T03:57:24;100792.63;;;0.25;85.16
49827;BME280;35715;51.570;6.036;2022-12-10T03:59:49;100795.88;;;0.24;85.13
49827;BME280;35715;51.570;6.036;2022-12-10T04:02:15;100796.94;;;0.26;85.58
49827;BME280;35715;51.570;6.036;2022-12-10T04:04:40;100791.47;;;0.30;85.75
49827;BME280;35715;51.570;6.036;2022-12-10T04:07:05;100799.47;;;0.26;85.41
49827;BME280;35715;51.570;6.036;2022-12-10T04:09:31;100797.63;;;0.32;85.59
49827;BME280;35715;51.570;6.036;2022-12-10T04:11:56;100801.94;;;0.33;85.48
49827;BME280;35715;51.570;6.036;2022-12-10T04:14:22;100807.84;;;0.41;86.09
49827;BME280;35715;51.570;6.036;2022-12-10T04:17:06;100802.59;;;0.39;85.37
49827;BME280;35715;51.570;6.036;2022-12-10T04:19:31;100822.34;;;0.42;85.91
49827;BME280;35715;51.570;6.036;2022-12-10T04:21:56;100816.53;;;0.43;85.77
49827;BME280;35715;51.570;6.036;2022-12-10T04:24:40;100817.91;;;0.48;85.58
49827;BME280;35715;51.570;6.036;2022-12-10T04:27:33;100819.31;;;0.53;85.50
49827;BME280;35715;51.570;6.036;2022-12-10T04:30:00;100817.19;;;0.49;85.49
49827;BME280;35715;51.570;6.036;2022-12-10T04:32:26;100811.78;;;0.46;85.98
49827;BME280;35715;51.570;6.036;2022-12-10T04:34:52;100812.50;;;0.45;86.02
49827;BME280;35715;51.570;6.036;2022-12-10T04:37:17;100817.41;;;0.43;85.52
49827;BME280;35715;51.570;6.036;2022-12-10T04:39:42;100817.31;;;0.34;85.28
49827;BME280;35715;51.570;6.036;2022-12-10T04:42:08;100819.31;;;0.37;85.66
49827;BME280;35715;51.570;6.036;2022-12-10T04:44:33;100813.41;;;0.29;85.12
49827;BME280;35715;51.570;6.036;2022-12-10T04:49:40;100812.16;;;0.26;85.89
49827;BME280;35715;51.570;6.036;2022-12-10T04:52:06;100804.16;;;0.30;86.38
49827;BME280;35715;51.570;6.036;2022-12-10T04:54:32;100809.06;;;0.28;86.47
49827;BME280;35715;51.570;6.036;2022-12-10T04:59:52;100808.56;;;0.24;86.35
49827;BME280;35715;51.570;6.036;2022-12-10T05:02:18;100811.50;;;0.20;86.57
49827;BME280;35715;51.570;6.036;2022-12-10T05:04:43;100810.44;;;0.17;86.60
49827;BME280;35715;51.570;6.036;2022-12-10T05:10:11;100817.44;;;0.27;86.71
49827;BME280;35715;51.570;6.036;2022-12-10T05:12:36;100817.59;;;0.29;86.56
49827;BME280;35715;51.570;6.036;2022-12-10T05:15:03;100813.56;;;0.31;86.64
49827;BME280;35715;51.570;6.036;2022-12-10T05:17:28;100807.34;;;0.20;86.78
49827;BME280;35715;51.570;6.036;2022-12-10T05:19:53;100815.28;;;0.23;87.16
49827;BME280;35715;51.570;6.036;2022-12-10T05:22:19;100808.09;;;0.35;87.30
49827;BME280;35715;51.570;6.036;2022-12-10T05:25:03;100812.34;;;0.27;87.49
49827;BME280;35715;51.570;6.036;2022-12-10T05:27:31;100812.09;;;0.33;87.48
49827;BME280;35715;51.570;6.036;2022-12-10T05:29:56;100813.50;;;0.38;87.09
49827;BME280;35715;51.570;6.036;2022-12-10T05:32:21;100815.53;;;0.33;87.13
49827;BME280;35715;51.570;6.036;2022-12-10T05:34:46;100816.44;;;0.34;87.35
49827;BME280;35715;51.570;6.036;2022-12-10T05:39:40;100822.06;;;0.31;87.00
49827;BME280;35715;51.570;6.036;2022-12-10T05:42:05;100830.78;;;0.33;87.22
49827;BME280;35715;51.570;6.036;2022-12-10T05:44:31;100828.25;;;0.33;87.11
49827;BME280;35715;51.570;6.036;2022-12-10T05:47:00;100827.81;;;0.38;87.41
49827;BME280;35715;51.570;6.036;2022-12-10T05:49:25;100829.47;;;0.37;87.31
49827;BME280;35715;51.570;6.036;2022-12-10T05:51:51;100825.44;;;0.39;87.42
49827;BME280;35715;51.570;6.036;2022-12-10T05:54:19;100823.31;;;0.35;87.78
49827;BME280;35715;51.570;6.036;2022-12-10T05:59:14;100831.16;;;0.45;87.15
49827;BME280;35715;51.570;6.036;2022-12-10T06:01:40;100832.66;;;0.43;87.24
49827;BME280;35715;51.570;6.036;2022-12-10T06:04:05;100842.16;;;0.37;87.04
49827;BME280;35715;51.570;6.036;2022-12-10T06:09:20;100840.09;;;0.42;87.55
49827;BME280;35715;51.570;6.036;2022-12-10T06:11:45;100838.22;;;0.48;87.53
49827;BME280;35715;51.570;6.036;2022-12-10T06:14:10;100845.72;;;0.39;87.00
49827;BME280;35715;51.570;6.036;2022-12-10T06:16:36;100832.97;;;0.30;87.03
49827;BME280;35715;51.570;6.036;2022-12-10T06:19:01;100831.25;;;0.22;87.14
49827;BME280;35715;51.570;6.036;2022-12-10T06:21:26;100829.75;;;0.24;87.54
49827;BME280;35715;51.570;6.036;2022-12-10T06:23:52;100836.09;;;0.28;87.46
49827;BME280;35715;51.570;6.036;2022-12-10T06:26:20;100832.81;;;0.29;87.32
49827;BME280;35715;51.570;6.036;2022-12-10T06:28:46;100836.31;;;0.22;87.31
49827;BME280;35715;51.570;6.036;2022-12-10T06:31:12;100839.50;;;0.12;87.85
49827;BME280;35715;51.570;6.036;2022-12-10T06:33:37;100835.31;;;0.13;87.81
49827;BME280;35715;51.570;6.036;2022-12-10T06:36:07;100839.56;;;0.21;88.01
49827;BME280;35715;51.570;6.036;2022-12-10T06:38:33;100847.03;;;0.20;87.84
49827;BME280;35715;51.570;6.036;2022-12-10T06:40:59;100845.41;;;0.20;87.61
49827;BME280;35715;51.570;6.036;2022-12-10T06:43:27;100847.59;;;0.17;87.74
49827;BME280;35715;51.570;6.036;2022-12-10T06:45:55;100847.03;;;0.20;88.13
49827;BME280;35715;51.570;6.036;2022-12-10T06:48:20;100842.97;;;0.29;88.13
49827;BME280;35715;51.570;6.036;2022-12-10T06:50:45;100842.38;;;0.31;88.06
49827;BME280;35715;51.570;6.036;2022-12-10T06:53:10;100849.44;;;0.34;87.92
49827;BME280;35715;51.570;6.036;2022-12-10T06:58:06;100858.41;;;0.23;88.44
49827;BME280;35715;51.570;6.036;2022-12-10T07:00:31;100851.69;;;0.24;88.21
49827;BME280;35715;51.570;6.036;2022-12-10T07:02:56;100843.25;;;0.16;88.19
49827;BME280;35715;51.570;6.036;2022-12-10T07:05:22;100850.44;;;0.04;88.71
49827;BME280;35715;51.570;6.036;2022-12-10T07:07:47;100854.06;;;0.06;88.80
49827;BME280;35715;51.570;6.036;2022-12-10T07:10:12;100856.34;;;0.12;88.87
49827;BME280;35715;51.570;6.036;2022-12-10T07:12:37;100855.94;;;0.16;88.46
49827;BME280;35715;51.570;6.036;2022-12-10T07:15:14;100855.13;;;0.08;89.09
49827;BME280;35715;51.570;6.036;2022-12-10T07:17:39;100857.66;;;0.08;88.93
49827;BME280;35715;51.570;6.036;2022-12-10T07:20:05;100858.72;;;0.10;89.00
49827;BME280;35715;51.570;6.036;2022-12-10T07:22:30;100864.63;;;0.18;88.76
49827;BME280;35715;51.570;6.036;2022-12-10T07:24:57;100865.88;;;0.22;88.55
49827;BME280;35715;51.570;6.036;2022-12-10T07:27:22;100875.69;;;0.19;88.45
49827;BME280;35715;51.570;6.036;2022-12-10T07:29:47;100883.69;;;0.14;88.84
49827;BME280;35715;51.570;6.036;2022-12-10T07:32:12;100892.53;;;0.18;88.70
49827;BME280;35715;51.570;6.036;2022-12-10T07:34:39;100889.25;;;0.19;88.35
49827;BME280;35715;51.570;6.036;2022-12-10T07:37:10;100886.94;;;0.13;88.38
49827;BME280;35715;51.570;6.036;2022-12-10T07:39:35;100890.31;;;0.21;89.07
49827;BME280;35715;51.570;6.036;2022-12-10T07:42:01;100890.31;;;0.21;88.57
49827;BME280;35715;51.570;6.036;2022-12-10T07:44:26;100894.84;;;0.24;88.83
49827;BME280;35715;51.570;6.036;2022-12-10T07:47:02;100887.06;;;0.22;88.77
49827;BME280;35715;51.570;6.036;2022-12-10T07:49:28;100888.03;;;0.15;88.80
49827;BME280;35715;51.570;6.036;2022-12-10T07:51:54;100889.47;;;0.13;89.36
49827;BME280;35715;51.570;6.036;2022-12-10T07:54:19;100899.53;;;0.28;89.41
49827;BME280;35715;51.570;6.036;2022-12-10T07:56:45;100906.16;;;0.34;89.21
49827;BME280;35715;51.570;6.036;2022-12-10T07:59:10;100905.19;;;0.41;88.85
49827;BME280;35715;51.570;6.036;2022-12-10T08:01:36;100909.13;;;0.46;88.90
49827;BME280;35715;51.570;6.036;2022-12-10T08:04:01;100909.47;;;0.49;89.07
49827;BME280;35715;51.570;6.036;2022-12-10T08:06:32;100907.03;;;0.58;89.05
49827;BME280;35715;51.570;6.036;2022-12-10T08:08:58;100912.66;;;0.56;89.12
49827;BME280;35715;51.570;6.036;2022-12-10T08:11:23;100912.97;;;0.59;89.16
49827;BME280;35715;51.570;6.036;2022-12-10T08:13:49;100913.66;;;0.65;89.07
49827;BME280;35715;51.570;6.036;2022-12-10T08:16:19;100915.47;;;0.66;89.03
49827;BME280;35715;51.570;6.036;2022-12-10T08:18:45;100921.84;;;0.62;88.65
49827;BME280;35715;51.570;6.036;2022-12-10T08:21:11;100927.81;;;0.63;88.68
49827;BME280;35715;51.570;6.036;2022-12-10T08:23:37;100927.66;;;0.61;88.11
49827;BME280;35715;51.570;6.036;2022-12-10T08:26:04;100924.56;;;0.64;88.29
49827;BME280;35715;51.570;6.036;2022-12-10T08:28:29;100923.63;;;0.47;88.27
49827;BME280;35715;51.570;6.036;2022-12-10T08:30:54;100925.03;;;0.52;88.51
49827;BME280;35715;51.570;6.036;2022-12-10T08:33:20;100924.84;;;0.51;88.60
49827;BME280;35715;51.570;6.036;2022-12-10T08:36:02;100932.63;;;0.52;88.77
49827;BME280;35715;51.570;6.036;2022-12-10T08:38:28;100939.34;;;0.52;88.21
49827;BME280;35715;51.570;6.036;2022-12-10T08:40:53;100932.56;;;0.60;88.52
49827;BME280;35715;51.570;6.036;2022-12-10T08:43:19;100932.91;;;0.63;88.65
49827;BME280;35715;51.570;6.036;2022-12-10T08:45:59;100938.16;;;0.64;88.67
49827;BME280;35715;51.570;6.036;2022-12-10T08:48:25;100940.91;;;0.59;88.67
49827;BME280;35715;51.570;6.036;2022-12-10T08:50:50;100942.06;;;0.53;89.08
49827;BME280;35715;51.570;6.036;2022-12-10T08:53:15;100941.66;;;0.58;89.16
49827;BME280;35715;51.570;6.036;2022-12-10T08:58:20;100956.97;;;0.66;89.36
49827;BME280;35715;51.570;6.036;2022-12-10T09:00:46;100963.31;;;0.70;88.75
49827;BME280;35715;51.570;6.036;2022-12-10T09:03:12;100966.00;;;0.72;88.73
49827;BME280;35715;51.570;6.036;2022-12-10T09:05:38;100965.25;;;0.73;88.67
49827;BME280;35715;51.570;6.036;2022-12-10T09:08:04;100965.19;;;0.64;87.97
49827;BME280;35715;51.570;6.036;2022-12-10T09:10:29;100966.78;;;0.63;88.23
49827;BME280;35715;51.570;6.036;2022-12-10T09:12:54;100970.59;;;0.67;88.63
49827;BME280;35715;51.570;6.036;2022-12-10T09:15:20;100970.75;;;0.68;88.43
49827;BME280;35715;51.570;6.036;2022-12-10T09:17:45;100970.25;;;0.64;88.27
49827;BME280;35715;51.570;6.036;2022-12-10T09:20:10;100972.53;;;0.69;88.37
49827;BME280;35715;51.570;6.036;2022-12-10T09:22:37;100977.00;;;0.79;88.56
49827;BME280;35715;51.570;6.036;2022-12-10T09:25:05;100975.19;;;0.78;88.03
49827;BME280;35715;51.570;6.036;2022-12-10T09:27:31;100975.34;;;0.80;88.26
49827;BME280;35715;51.570;6.036;2022-12-10T09:29:56;100978.13;;;0.74;88.80
49827;BME280;35715;51.570;6.036;2022-12-10T09:32:22;100974.69;;;0.74;88.48
49827;BME280;35715;51.570;6.036;2022-12-10T09:34:50;100981.00;;;0.77;88.30
49827;BME280;35715;51.570;6.036;2022-12-10T09:37:22;100986.00;;;0.84;88.30
49827;BME280;35715;51.570;6.036;2022-12-10T09:39:48;100984.22;;;0.83;87.81
49827;BME280;35715;51.570;6.036;2022-12-10T09:47:24;100981.59;;;0.91;88.48
49827;BME280;35715;51.570;6.036;2022-12-10T09:52:19;100989.47;;;0.85;88.91
49827;BME280;35715;51.570;6.036;2022-12-10T09:57:22;100976.34;;;0.89;88.59
49827;BME280;35715;51.570;6.036;2022-12-10T09:59:50;100986.84;;;0.92;88.92
49827;BME280;35715;51.570;6.036;2022-12-10T10:02:26;100990.19;;;1.00;88.64
49827;BME280;35715;51.570;6.036;2022-12-10T10:04:54;100997.09;;;1.01;88.12
49827;BME280;35715;51.570;6.036;2022-12-10T10:07:23;100991.13;;;1.00;87.82
49827;BME280;35715;51.570;6.036;2022-12-10T10:09:50;100989.31;;;0.99;87.89
49827;BME280;35715;51.570;6.036;2022-12-10T10:12:16;100986.19;;;1.02;88.22
49827;BME280;35715;51.570;6.036;2022-12-10T10:14:44;100991.84;;;0.99;88.15
49827;BME280;35715;51.570;6.036;2022-12-10T10:17:21;100992.00;;;1.01;88.37
49827;BME280;35715;51.570;6.036;2022-12-10T10:19:47;100993.59;;;1.08;88.54
49827;BME280;35715;51.570;6.036;2022-12-10T10:22:14;100992.25;;;1.11;88.53
49827;BME280;35715;51.570;6.036;2022-12-10T10:24:45;101002.19;;;1.17;87.90
49827;BME280;35715;51.570;6.036;2022-12-10T10:27:17;100993.47;;;1.15;87.80
49827;BME280;35715;51.570;6.036;2022-12-10T10:29:44;100994.81;;;1.11;87.86
49827;BME280;35715;51.570;6.036;2022-12-10T10:32:15;100989.31;;;0.99;87.63
49827;BME280;35715;51.570;6.036;2022-12-10T10:34:40;100987.59;;;1.07;87.95
49827;BME280;35715;51.570;6.036;2022-12-10T10:37:19;100987.66;;;1.16;87.77
49827;BME280;35715;51.570;6.036;2022-12-10T10:39:48;100996.94;;;1.15;87.70
49827;BME280;35715;51.570;6.036;2022-12-10T10:42:19;100996.94;;;1.15;87.91
49827;BME280;35715;51.570;6.036;2022-12-10T10:44:48;100992.59;;;1.14;88.14
49827;BME280;35715;51.570;6.036;2022-12-10T10:47:29;100989.41;;;1.08;88.38
49827;BME280;35715;51.570;6.036;2022-12-10T10:49:55;100984.97;;;1.14;88.02
49827;BME280;35715;51.570;6.036;2022-12-10T10:52:27;100984.63;;;1.11;87.53
49827;BME280;35715;51.570;6.036;2022-12-10T10:54:53;100987.75;;;1.09;87.21
49827;BME280;35715;51.570;6.036;2022-12-10T10:59:48;100988.84;;;1.11;87.67
49827;BME280;35715;51.570;6.036;2022-12-10T11:02:21;100985.84;;;1.15;87.43
49827;BME280;35715;51.570;6.036;2022-12-10T11:04:52;100983.91;;;1.12;87.67
49827;BME280;35715;51.570;6.036;2022-12-10T11:07:37;100984.41;;;1.17;87.81
49827;BME280;35715;51.570;6.036;2022-12-10T11:10:22;100984.91;;;1.21;87.68
49827;BME280;35715;51.570;6.036;2022-12-10T11:15:44;100985.63;;;1.20;87.08
49827;BME280;35715;51.570;6.036;2022-12-10T11:18:22;100982.84;;;1.26;87.41
49827;BME280;35715;51.570;6.036;2022-12-10T11:23:29;100983.50;;;1.32;87.57
49827;BME280;35715;51.570;6.036;2022-12-10T11:39:33;100982.41;;;1.46;87.25
49827;BME280;35715;51.570;6.036;2022-12-10T11:42:22;100978.06;;;1.45;87.10
49827;BME280;35715;51.570;6.036;2022-12-10T11:53:24;100972.56;;;1.49;87.78
49827;BME280;35715;51.570;6.036;2022-12-10T11:58:48;100979.78;;;1.37;87.58
49827;BME280;35715;51.570;6.036;2022-12-10T12:04:52;100978.47;;;1.25;88.06
49827;BME280;35715;51.570;6.036;2022-12-10T12:14:33;100967.16;;;1.46;87.53
49827;BME280;35715;51.570;6.036;2022-12-10T12:19:57;100972.97;;;1.45;87.63
49827;BME280;35715;51.570;6.036;2022-12-10T12:22:25;100963.97;;;1.40;87.82
49827;BME280;35715;51.570;6.036;2022-12-10T12:24:57;100968.88;;;1.38;88.06
49827;BME280;35715;51.570;6.036;2022-12-10T12:27:35;100968.47;;;1.42;88.15
49827;BME280;35715;51.570;6.036;2022-12-10T12:32:36;100967.22;;;1.55;87.43
49827;BME280;35715;51.570;6.036;2022-12-10T12:37:46;100967.47;;;1.65;87.86
49827;BME280;35715;51.570;6.036;2022-12-10T12:53:20;100961.94;;;1.69;87.35
49827;BME280;35715;51.570;6.036;2022-12-10T12:58:41;100959.69;;;1.72;87.46
49827;BME280;35715;51.570;6.036;2022-12-10T13:01:12;100964.78;;;1.72;87.61
49827;BME280;35715;51.570;6.036;2022-12-10T13:03:39;100962.84;;;1.70;87.82
49827;BME280;35715;51.570;6.036;2022-12-10T13:08:46;100973.84;;;1.62;87.20
49827;BME280;35715;51.570;6.036;2022-12-10T13:13:41;100975.75;;;1.55;87.35
49827;BME280;35715;51.570;6.036;2022-12-10T13:19:12;100980.09;;;1.56;87.72
49827;BME280;35715;51.570;6.036;2022-12-10T13:21:55;100982.81;;;1.58;87.49
49827;BME280;35715;51.570;6.036;2022-12-10T13:24:25;100983.44;;;1.64;87.72
49827;BME280;35715;51.570;6.036;2022-12-10T13:29:59;100995.38;;;1.40;87.56
49827;BME280;35715;51.570;6.036;2022-12-10T13:40:25;100993.50;;;1.31;88.46
49827;BME280;35715;51.570;6.036;2022-12-10T13:42:58;100994.16;;;1.37;88.24
49827;BME280;35715;51.570;6.036;2022-12-10T13:45:44;100998.72;;;1.48;87.64
49827;BME280;35715;51.570;6.036;2022-12-10T14:01:14;100997.50;;;1.29;88.37
49827;BME280;35715;51.570;6.036;2022-12-10T14:06:38;101004.38;;;1.30;87.82
49827;BME280;35715;51.570;6.036;2022-12-10T14:11:31;101020.91;;;1.33;87.69
49827;BME280;35715;51.570;6.036;2022-12-10T14:13:58;101020.03;;;1.26;87.35
49827;BME280;35715;51.570;6.036;2022-12-10T14:19:11;101015.13;;;1.27;88.10
49827;BME280;35715;51.570;6.036;2022-12-10T14:21:39;101013.09;;;1.32;88.36
49827;BME280;35715;51.570;6.036;2022-12-10T14:24:06;101011.78;;;1.35;88.18
49827;BME280;35715;51.570;6.036;2022-12-10T14:26:59;101015.72;;;1.24;88.17
49827;BME280;35715;51.570;6.036;2022-12-10T14:29:25;101012.75;;;1.29;88.56
49827;BME280;35715;51.570;6.036;2022-12-10T14:31:51;101009.81;;;1.33;88.51
49827;BME280;35715;51.570;6.036;2022-12-10T14:34:17;101018.69;;;1.36;88.38
49827;BME280;35715;51.570;6.036;2022-12-10T14:39:41;101016.38;;;1.31;88.17
49827;BME280;35715;51.570;6.036;2022-12-10T14:42:10;101017.44;;;1.33;88.37
49827;BME280;35715;51.570;6.036;2022-12-10T14:44:37;101017.44;;;1.33;88.16
49827;BME280;35715;51.570;6.036;2022-12-10T14:47:12;101022.91;;;1.29;88.10
49827;BME280;35715;51.570;6.036;2022-12-10T14:49:38;101018.59;;;1.28;88.17
49827;BME280;35715;51.570;6.036;2022-12-10T14:52:08;101022.34;;;1.15;88.50
49827;BME280;35715;51.570;6.036;2022-12-10T14:54:35;101019.00;;;1.23;88.94
49827;BME280;35715;51.570;6.036;2022-12-10T14:57:04;101021.13;;;1.28;89.08
49827;BME280;35715;51.570;6.036;2022-12-10T14:59:32;101025.28;;;1.27;89.14
49827;BME280;35715;51.570;6.036;2022-12-10T15:02:00;101025.44;;;1.29;88.93
49827;BME280;35715;51.570;6.036;2022-12-10T15:04:41;101031.38;;;1.20;89.07
49827;BME280;35715;51.570;6.036;2022-12-10T15:09:54;101024.81;;;1.22;89.03
49827;BME280;35715;51.570;6.036;2022-12-10T15:12:22;101027.34;;;1.22;89.41
49827;BME280;35715;51.570;6.036;2022-12-10T15:14:49;101030.69;;;1.30;89.36
49827;BME280;35715;51.570;6.036;2022-12-10T15:19:59;101032.28;;;1.37;88.71
49827;BME280;35715;51.570;6.036;2022-12-10T15:22:26;101032.28;;;1.37;88.79
49827;BME280;35715;51.570;6.036;2022-12-10T15:24:51;101029.81;;;1.30;89.12
49827;BME280;35715;51.570;6.036;2022-12-10T15:27:24;101023.84;;;1.29;89.12
49827;BME280;35715;51.570;6.036;2022-12-10T15:29:50;101032.41;;;1.22;89.29
49827;BME280;35715;51.570;6.036;2022-12-10T15:32:19;101030.31;;;1.18;89.32
49827;BME280;35715;51.570;6.036;2022-12-10T15:34:53;101034.81;;;1.21;89.68
49827;BME280;35715;51.570;6.036;2022-12-10T15:37:21;101030.97;;;1.24;89.52
49827;BME280;35715;51.570;6.036;2022-12-10T15:39:49;101034.25;;;1.23;89.54
49827;BME280;35715;51.570;6.036;2022-12-10T15:44:54;101048.31;;;1.29;89.92
49827;BME280;35715;51.570;6.036;2022-12-10T15:49:46;101051.41;;;1.33;89.46
49827;BME280;35715;51.570;6.036;2022-12-10T15:52:14;101055.88;;;1.36;89.64
49827;BME280;35715;51.570;6.036;2022-12-10T15:54:41;101052.06;;;1.39;89.62
49827;BME280;35715;51.570;6.036;2022-12-10T15:57:13;101054.34;;;1.29;89.34
49827;BME280;35715;51.570;6.036;2022-12-10T15:59:40;101053.56;;;1.30;89.48
49827;BME280;35715;51.570;6.036;2022-12-10T16:04:50;101052.53;;;1.28;89.78
49827;BME280;35715;51.570;6.036;2022-12-10T16:07:16;101063.34;;;1.34;89.97
49827;BME280;35715;51.570;6.036;2022-12-10T16:09:42;101054.56;;;1.23;89.45
49827;BME280;35715;51.570;6.036;2022-12-10T16:12:09;101051.09;;;1.07;89.73